createdAt,value
2019-01-20T00:06:39.071Z,-2.4
2019-01-20T00:23:10.259Z,-2.7
2019-01-20T00:39:41.475Z,-2.7
2019-01-20T00:56:12.636Z,-2.7
2019-01-20T01:12:43.787Z,-2.7
2019-01-20T01:29:15.070Z,-2.7
2019-01-20T01:45:46.230Z,-2.7
2019-01-20T02:02:17.510Z,-2.7
2019-01-20T02:18:48.650Z,-2.7
2019-01-20T02:35:19.749Z,-2.7
2019-01-20T02:51:50.851Z,-2.7
2019-01-20T03:08:22.032Z,-3.0
2019-01-20T03:24:53.052Z,-3.0
2019-01-20T03:41:24.100Z,-3.0
2019-01-20T03:57:55.176Z,-3.0
2019-01-20T04:14:26.207Z,-3.0
2019-01-20T04:30:57.155Z,-3.0
2019-01-20T04:47:28.189Z,-3.4
2019-01-20T05:03:59.092Z,-3.4
2019-01-20T05:20:29.985Z,-3.4
2019-01-20T05:37:00.875Z,-3.4
2019-01-20T05:53:31.765Z,-3.4
2019-01-20T06:10:02.608Z,-3.7
2019-01-20T06:26:33.516Z,-3.4
2019-01-20T06:43:04.183Z,-3.7
2019-01-20T06:59:34.917Z,-3.7
2019-01-20T07:16:05.652Z,-3.7
2019-01-20T07:32:36.477Z,-3.7
2019-01-20T07:49:07.322Z,-3.7
2019-01-20T08:05:38.301Z,-3.4
2019-01-20T08:22:09.242Z,-3.4
2019-01-20T08:38:40.536Z,-3.0
2019-01-20T08:55:11.407Z,-3.0
2019-01-20T09:11:42.504Z,-3.0
2019-01-20T09:28:13.722Z,-2.4
2019-01-20T09:44:45.156Z,-2.1
2019-01-20T10:01:17.184Z,-1.4
2019-01-20T10:17:49.384Z,-1.1
2019-01-20T10:34:21.808Z,-0.5
2019-01-20T10:50:54.814Z,-0.2
2019-01-20T11:00:50.282Z,0.5
2019-01-20T11:17:23.491Z,0.8
2019-01-20T11:24:00.862Z,0.8
2019-01-20T11:40:34.402Z,1.1
2019-01-20T11:57:07.687Z,1.4
2019-01-20T12:13:41.405Z,1.8
2019-01-20T12:30:15.321Z,2.1
2019-01-20T12:43:30.618Z,2.1
2019-01-20T12:46:49.371Z,2.1
2019-01-20T13:03:23.444Z,2.1
2019-01-20T13:13:19.873Z,2.1
2019-01-20T13:29:54.121Z,2.1
2019-01-20T13:39:50.341Z,2.1
2019-01-20T13:56:24.602Z,2.4
2019-01-20T14:06:21.218Z,2.4
2019-01-20T14:16:17.744Z,2.4
2019-01-20T14:29:33.094Z,2.4
2019-01-20T14:42:48.456Z,2.1
2019-01-20T14:59:22.546Z,2.1
2019-01-20T15:15:56.649Z,1.8
2019-01-20T15:32:30.550Z,1.8
2019-01-20T15:49:04.395Z,1.4
2019-01-20T16:05:38.049Z,1.1
2019-01-20T16:22:11.663Z,1.1
2019-01-20T16:38:45.220Z,0.8
2019-01-20T16:55:18.553Z,0.5
2019-01-20T17:08:33.179Z,0.2
2019-01-20T17:25:06.093Z,-0.2
2019-01-20T17:58:12.032Z,-0.2
2019-01-20T18:14:44.625Z,-0.5
2019-01-20T18:31:17.280Z,-0.8
2019-01-20T18:47:49.587Z,-0.8
2019-01-20T19:04:21.705Z,-0.8
2019-01-20T19:20:53.536Z,-1.1
2019-01-20T19:37:25.721Z,-1.1
2019-01-20T19:53:57.709Z,-1.1
2019-01-20T20:10:29.529Z,-1.4
2019-01-20T20:27:01.699Z,-1.4
2019-01-20T20:43:32.962Z,-1.8
2019-01-20T21:00:04.540Z,-1.8
2019-01-20T21:16:38.033Z,-1.8
2019-01-20T21:33:07.667Z,-1.8
2019-01-20T21:49:39.207Z,-1.8
2019-01-20T22:06:10.838Z,-1.8
2019-01-20T22:22:42.437Z,-2.1
2019-01-20T22:39:13.809Z,-2.1
2019-01-20T22:55:45.214Z,-2.1
2019-01-20T23:12:16.577Z,-2.4
2019-01-20T23:28:47.885Z,-2.4
2019-01-20T23:45:19.032Z,-2.7
